createdAt,value
2018-06-04T00:00:30.633Z,100776.91
2018-06-04T00:03:00.377Z,100774.56
2018-06-04T00:05:30.148Z,100772.97
2018-06-04T00:07:59.900Z,100769.61
2018-06-04T00:10:29.635Z,100761.56
2018-06-04T00:12:59.369Z,100763.59
2018-06-04T00:15:29.176Z,100760.22
2018-06-04T00:17:58.994Z,100760.91
2018-06-04T00:20:28.917Z,100759.89
2018-06-04T00:22:58.737Z,100757.28
2018-06-04T00:25:28.609Z,100752.10
2018-06-04T00:27:58.363Z,100752.57
2018-06-04T00:30:28.153Z,100756.13
2018-06-04T00:32:57.945Z,100752.10
2018-06-04T00:35:27.663Z,100745.80
2018-06-04T00:37:57.456Z,100744.36
2018-06-04T00:40:27.190Z,100751.92
2018-06-04T00:42:56.919Z,100756.34
2018-06-04T00:45:26.696Z,100750.98
2018-06-04T00:47:56.458Z,100746.49
2018-06-04T00:50:26.224Z,100744.61
2018-06-04T00:52:56.048Z,100744.61
2018-06-04T00:55:25.774Z,100738.31
2018-06-04T00:57:55.540Z,100743.34
2018-06-04T01:00:25.314Z,100741.14
2018-06-04T01:02:55.133Z,100737.37
2018-06-04T01:05:24.908Z,100738.78
2018-06-04T01:07:54.734Z,100735.70
2018-06-04T01:10:24.529Z,100733.48
2018-06-04T01:12:54.318Z,100733.56
2018-06-04T01:15:24.027Z,100739.65
2018-06-04T01:17:53.796Z,100736.09
2018-06-04T01:20:23.522Z,100740.81
2018-06-04T01:22:53.278Z,100730.95
2018-06-04T01:25:23.063Z,100732.63
2018-06-04T01:27:52.832Z,100739.47
2018-06-04T01:30:22.598Z,100733.81
2018-06-04T01:32:52.325Z,100730.41
2018-06-04T01:35:22.092Z,100733.17
2018-06-04T01:37:51.840Z,100737.11
2018-06-04T01:40:21.704Z,100734.69
2018-06-04T01:42:51.452Z,100724.73
2018-06-04T01:45:21.366Z,100728.59
2018-06-04T01:47:51.168Z,100726.25
2018-06-04T01:50:20.946Z,100727.52
2018-06-04T01:52:50.713Z,100723.71
2018-06-04T01:55:20.464Z,100721.57
2018-06-04T01:57:50.247Z,100723.38
2018-06-04T02:00:20.008Z,100720.48
2018-06-04T02:02:49.803Z,100723.48
2018-06-04T02:05:19.613Z,100715.67
2018-06-04T02:07:49.486Z,100717.48
2018-06-04T02:10:19.272Z,100714.66
2018-06-04T02:12:48.994Z,100722.70
2018-06-04T02:15:18.759Z,100719.55
2018-06-04T02:17:48.527Z,100719.55
2018-06-04T02:20:18.500Z,100711.83
2018-06-04T02:22:48.265Z,100706.22
2018-06-04T02:25:18.077Z,100706.07
2018-06-04T02:27:47.852Z,100702.74
2018-06-04T02:30:18.321Z,100701.73
2018-06-04T02:32:49.937Z,100702.52
2018-06-04T02:35:21.072Z,100697.31
2018-06-04T02:37:51.107Z,100702.27
2018-06-04T02:40:21.181Z,100703.39
2018-06-04T02:42:53.309Z,100705.35
2018-06-04T02:45:24.022Z,100702.34
2018-06-04T02:47:54.496Z,100700.78
2018-06-04T02:50:24.585Z,100699.77
2018-06-04T02:52:54.683Z,100696.77
2018-06-04T02:55:25.438Z,100694.13
2018-06-04T02:57:55.247Z,100698.69
2018-06-04T03:00:26.104Z,100693.07
2018-06-04T03:02:57.876Z,100698.14
2018-06-04T03:05:31.616Z,100691.05
2018-06-04T03:08:01.397Z,100691.59
2018-06-04T03:10:31.136Z,100694.05
2018-06-04T03:13:00.986Z,100690.58
2018-06-04T03:15:30.703Z,100690.42
2018-06-04T03:18:00.631Z,100693.87
2018-06-04T03:20:30.672Z,100685.47
2018-06-04T03:23:01.050Z,100689.84
2018-06-04T03:25:31.239Z,100684.81
2018-06-04T03:28:01.192Z,100687.28
2018-06-04T03:30:31.757Z,100686.33
2018-06-04T03:33:03.119Z,100683.48
2018-06-04T03:35:33.744Z,100680.00
2018-06-04T03:38:03.489Z,100684.27
2018-06-04T03:40:33.363Z,100680.80
2018-06-04T03:43:03.123Z,100677.25
2018-06-04T03:45:33.744Z,100676.70
2018-06-04T03:48:03.624Z,100675.22
2018-06-04T03:50:33.534Z,100667.95
2018-06-04T03:53:04.451Z,100667.80
2018-06-04T03:55:34.224Z,100668.45
2018-06-04T03:58:04.555Z,100663.09
2018-06-04T04:00:36.866Z,100662.80
2018-06-04T04:03:09.874Z,100662.14
2018-06-04T04:05:40.234Z,100657.73
2018-06-04T04:08:10.816Z,100662.72
2018-06-04T04:10:42.687Z,100662.14
2018-06-04T04:13:13.718Z,100657.83
2018-06-04T04:15:46.455Z,100659.23
2018-06-04T04:18:19.978Z,100657.95
2018-06-04T04:20:52.506Z,100653.94
2018-06-04T04:23:22.382Z,100656.86
2018-06-04T04:25:53.064Z,100656.19
2018-06-04T04:28:24.605Z,100662.08
2018-06-04T04:30:56.881Z,100662.48
2018-06-04T04:33:28.213Z,100660.01
2018-06-04T04:35:59.979Z,100657.77
2018-06-04T04:38:31.609Z,100659.79
2018-06-04T04:41:02.487Z,100664.37
2018-06-04T04:43:45.790Z,100662.16
2018-06-04T04:46:18.370Z,100663.55
2018-06-04T04:48:49.646Z,100669.27
2018-06-04T04:51:21.077Z,100666.78
2018-06-04T04:54:04.032Z,100668.20
2018-06-04T04:56:34.960Z,100670.38
2018-06-04T04:59:07.202Z,100664.97
2018-06-04T05:01:37.069Z,100666.30
2018-06-04T05:04:06.922Z,100665.71
2018-06-04T05:06:39.763Z,100662.84
2018-06-04T05:09:11.090Z,100665.73
2018-06-04T05:11:42.116Z,100675.13
2018-06-04T05:14:12.350Z,100677.53
2018-06-04T05:16:43.814Z,100678.95
2018-06-04T05:19:15.477Z,100673.58
2018-06-04T05:21:45.230Z,100678.81
2018-06-04T05:24:15.007Z,100675.00
2018-06-04T05:26:44.757Z,100674.37
2018-06-04T05:29:14.542Z,100674.89
2018-06-04T05:31:46.722Z,100670.80
2018-06-04T05:34:17.847Z,100668.81
2018-06-04T05:36:47.715Z,100673.42
2018-06-04T05:39:17.595Z,100671.55
2018-06-04T05:41:47.333Z,100672.85
2018-06-04T05:44:17.217Z,100674.84
2018-06-04T05:46:47.019Z,100663.95
2018-06-04T05:49:16.766Z,100663.53
2018-06-04T05:51:46.476Z,100672.11
2018-06-04T05:54:16.182Z,100667.78
2018-06-04T05:56:45.954Z,100666.14
2018-06-04T05:59:15.653Z,100666.95
2018-06-04T06:01:45.504Z,100672.64
2018-06-04T06:04:15.154Z,100671.44
2018-06-04T06:06:44.926Z,100672.55
2018-06-04T06:09:14.865Z,100665.52
2018-06-04T06:11:44.634Z,100666.05
2018-06-04T06:14:14.485Z,100666.95
2018-06-04T06:16:44.426Z,100659.83
2018-06-04T06:19:14.352Z,100661.64
2018-06-04T06:21:45.799Z,100657.02
2018-06-04T06:24:15.654Z,100655.77
2018-06-04T06:26:45.479Z,100649.93
2018-06-04T06:29:15.278Z,100644.97
2018-06-04T06:31:45.014Z,100643.45
2018-06-04T06:34:14.760Z,100644.08
2018-06-04T06:36:44.464Z,100636.97
2018-06-04T06:39:14.630Z,100643.34
2018-06-04T06:41:44.372Z,100650.47
2018-06-04T06:44:14.294Z,100647.36
2018-06-04T06:46:44.050Z,100647.13
2018-06-04T06:49:13.809Z,100641.07
2018-06-04T06:51:43.540Z,100641.36
2018-06-04T06:54:13.334Z,100641.22
2018-06-04T06:56:43.121Z,100631.97
2018-06-04T06:59:12.857Z,100627.73
2018-06-04T07:01:42.636Z,100626.48
2018-06-04T07:04:12.345Z,100628.25
2018-06-04T07:06:42.121Z,100624.42
2018-06-04T07:09:11.929Z,100624.80
2018-06-04T07:11:41.666Z,100630.09
2018-06-04T07:14:11.431Z,100622.70
2018-06-04T07:16:41.151Z,100626.70
2018-06-04T07:19:10.905Z,100629.69
2018-06-04T07:21:40.655Z,100623.91
2018-06-04T07:24:10.389Z,100621.17
2018-06-04T07:26:40.195Z,100627.94
2018-06-04T07:29:10.010Z,100616.58
2018-06-04T07:31:39.813Z,100623.15
2018-06-04T07:34:09.551Z,100625.77
2018-06-04T07:36:39.325Z,100615.59
2018-06-04T07:39:09.589Z,100619.01
2018-06-04T07:41:39.334Z,100610.88
2018-06-04T07:44:09.044Z,100617.73
2018-06-04T07:46:38.751Z,100617.84
2018-06-04T07:49:08.498Z,100618.46
2018-06-04T07:51:38.245Z,100614.54
2018-06-04T07:54:07.961Z,100615.94
2018-06-04T07:56:37.696Z,100614.59
2018-06-04T07:59:07.410Z,100614.19
2018-06-04T08:01:37.225Z,100609.34
2018-06-04T08:04:06.964Z,100599.45
2018-06-04T08:06:36.725Z,100593.66
2018-06-04T08:09:08.425Z,100593.67
2018-06-04T08:11:38.179Z,100600.72
2018-06-04T08:14:07.983Z,100592.19
2018-06-04T08:16:37.739Z,100598.10
2018-06-04T08:19:07.453Z,100591.34
2018-06-04T08:21:37.241Z,100593.09
2018-06-04T08:24:07.013Z,100596.91
2018-06-04T08:26:36.812Z,100591.96
2018-06-04T08:29:06.687Z,100597.55
2018-06-04T08:31:36.453Z,100600.31
2018-06-04T08:34:06.301Z,100600.88
2018-06-04T08:36:36.056Z,100597.01
2018-06-04T08:39:09.069Z,100596.14
2018-06-04T08:41:38.820Z,100598.42
2018-06-04T08:44:08.675Z,100597.78
2018-06-04T08:46:38.399Z,100599.67
2018-06-04T08:49:08.171Z,100598.58
2018-06-04T08:51:37.917Z,100592.86
2018-06-04T08:54:07.726Z,100593.35
2018-06-04T08:56:37.503Z,100589.54
2018-06-04T08:59:07.307Z,100584.91
2018-06-04T09:01:37.115Z,100583.33
2018-06-04T09:04:06.869Z,100577.69
2018-06-04T09:06:36.592Z,100577.44
2018-06-04T09:09:08.100Z,100574.58
2018-06-04T09:11:37.816Z,100576.05
2018-06-04T09:14:07.649Z,100573.49
2018-06-04T09:16:37.384Z,100571.27
2018-06-04T09:19:07.248Z,100568.86
2018-06-04T09:21:37.287Z,100565.77
2018-06-04T09:24:07.031Z,100567.67
2018-06-04T09:26:36.794Z,100565.16
2018-06-04T09:29:06.580Z,100567.50
2018-06-04T09:31:36.292Z,100565.26
2018-06-04T09:34:06.092Z,100558.03
2018-06-04T09:36:35.872Z,100557.33
2018-06-04T09:39:07.778Z,100562.47
2018-06-04T09:41:37.505Z,100556.86
2018-06-04T09:44:07.364Z,100559.44
2018-06-04T09:46:37.123Z,100554.17
2018-06-04T09:49:07.044Z,100557.25
2018-06-04T09:51:36.824Z,100557.44
2018-06-04T09:54:06.578Z,100554.55
2018-06-04T09:56:36.260Z,100546.66
2018-06-04T09:59:06.120Z,100549.31
2018-06-04T10:01:35.895Z,100546.58
2018-06-04T10:04:05.704Z,100544.08
2018-06-04T10:06:35.471Z,100544.88
2018-06-04T10:09:08.070Z,100543.92
2018-06-04T10:11:37.849Z,100545.53
2018-06-04T10:14:07.652Z,100538.80
2018-06-04T10:16:37.494Z,100536.27
2018-06-04T10:19:07.308Z,100535.73
2018-06-04T10:21:37.038Z,100526.92
2018-06-04T10:24:06.988Z,100514.64
2018-06-04T10:26:36.775Z,100523.58
2018-06-04T10:29:06.521Z,100525.78
2018-06-04T10:31:36.245Z,100522.61
2018-06-04T10:34:06.121Z,100515.11
2018-06-04T10:36:35.869Z,100518.16
2018-06-04T10:39:07.625Z,100514.83
2018-06-04T10:41:37.455Z,100508.59
2018-06-04T10:44:07.200Z,100509.98
2018-06-04T10:46:36.940Z,100501.82
2018-06-04T10:49:06.694Z,100496.88
2018-06-04T10:51:36.430Z,100498.47
2018-06-04T10:54:06.218Z,100493.06
2018-06-04T10:56:35.983Z,100498.47
2018-06-04T10:59:05.816Z,100496.59
2018-06-04T11:01:35.551Z,100489.44
2018-06-04T11:04:05.335Z,100483.90
2018-06-04T11:06:35.043Z,100477.93
2018-06-04T11:09:07.722Z,100476.42
2018-06-04T11:11:37.442Z,100473.45
2018-06-04T11:14:07.203Z,100476.23
2018-06-04T11:16:36.923Z,100478.31
2018-06-04T11:19:06.770Z,100473.64
2018-06-04T11:21:36.492Z,100474.30
2018-06-04T11:24:06.212Z,100465.89
2018-06-04T11:26:35.982Z,100460.98
2018-06-04T11:29:06.136Z,100458.53
2018-06-04T11:31:35.935Z,100455.77
2018-06-04T11:34:05.779Z,100457.87
2018-06-04T11:36:35.596Z,100449.23
2018-06-04T11:39:07.321Z,100450.95
2018-06-04T11:41:37.071Z,100436.42
2018-06-04T11:44:06.847Z,100441.20
2018-06-04T11:46:36.647Z,100438.50
2018-06-04T11:49:06.470Z,100438.13
2018-06-04T11:51:36.274Z,100435.48
2018-06-04T11:54:06.027Z,100438.08
2018-06-04T11:56:35.846Z,100435.54
2018-06-04T11:59:05.583Z,100430.05
2018-06-04T12:01:35.292Z,100428.58
2018-06-04T12:04:05.004Z,100432.47
2018-06-04T12:06:34.769Z,100427.42
2018-06-04T12:09:06.543Z,100423.48
2018-06-04T12:11:36.742Z,100423.02
2018-06-04T12:14:06.503Z,100411.92
2018-06-04T12:16:36.310Z,100411.77
2018-06-04T12:19:06.049Z,100402.33
2018-06-04T12:21:35.808Z,100409.52
2018-06-04T12:24:05.611Z,100404.44
2018-06-04T12:26:35.331Z,100406.09
2018-06-04T12:29:05.111Z,100398.30
2018-06-04T12:31:34.841Z,100398.08
2018-06-04T12:34:04.603Z,100394.83
2018-06-04T12:36:34.338Z,100394.67
2018-06-04T12:39:04.419Z,100396.48
2018-06-04T12:41:34.172Z,100392.77
2018-06-04T12:44:04.019Z,100387.07
2018-06-04T12:46:33.723Z,100388.46
2018-06-04T12:49:03.539Z,100384.38
2018-06-04T12:51:34.222Z,100374.35
2018-06-04T12:54:03.950Z,100376.97
2018-06-04T12:56:33.696Z,100375.47
2018-06-04T12:59:03.464Z,100363.86
2018-06-04T13:01:33.193Z,100358.78
2018-06-04T13:04:02.983Z,100357.70
2018-06-04T13:06:32.694Z,100355.69
2018-06-04T13:09:02.465Z,100341.96
2018-06-04T13:11:32.230Z,100338.86
2018-06-04T13:14:02.032Z,100346.05
2018-06-04T13:16:31.852Z,100341.60
2018-06-04T13:19:01.616Z,100341.86
2018-06-04T13:21:31.404Z,100337.91
2018-06-04T13:24:01.122Z,100326.84
2018-06-04T13:26:31.518Z,100323.53
2018-06-04T13:29:01.335Z,100323.35
2018-06-04T13:31:31.198Z,100326.93
2018-06-04T13:34:00.974Z,100320.62
2018-06-04T13:36:30.774Z,100312.92
2018-06-04T13:39:00.491Z,100313.58
2018-06-04T13:41:30.245Z,100313.97
2018-06-04T13:43:59.990Z,100302.90
2018-06-04T13:46:29.703Z,100303.95
2018-06-04T13:48:59.495Z,100303.95
2018-06-04T13:51:29.377Z,100294.28
2018-06-04T13:53:59.286Z,100297.64
2018-06-04T13:56:29.090Z,100289.02
2018-06-04T13:58:58.882Z,100286.28
2018-06-04T14:01:28.738Z,100286.88
2018-06-04T14:03:58.525Z,100281.86
2018-06-04T14:06:28.393Z,100282.13
2018-06-04T14:08:58.130Z,100273.16
2018-06-04T14:11:27.926Z,100272.69
2018-06-04T14:13:57.705Z,100267.48
2018-06-04T14:16:27.454Z,100266.23
2018-06-04T14:18:57.208Z,100261.25
2018-06-04T14:21:26.946Z,100263.23
2018-06-04T14:23:56.654Z,100268.77
2018-06-04T14:26:26.411Z,100265.25
2018-06-04T14:28:56.128Z,100257.85
2018-06-04T14:31:25.933Z,100251.38
2018-06-04T14:33:55.728Z,100245.61
2018-06-04T14:36:25.438Z,100247.63
2018-06-04T14:38:55.184Z,100246.12
2018-06-04T14:41:24.932Z,100239.96
2018-06-04T14:43:54.707Z,100234.23
2018-06-04T14:46:25.856Z,100243.37
2018-06-04T14:48:55.642Z,100239.47
2018-06-04T14:51:25.398Z,100231.39
2018-06-04T14:53:55.193Z,100228.77
2018-06-04T14:56:24.926Z,100235.70
2018-06-04T14:58:54.702Z,100236.98
2018-06-04T15:01:24.460Z,100226.55
2018-06-04T15:03:54.250Z,100225.14
2018-06-04T15:06:23.995Z,100231.03
2018-06-04T15:08:53.761Z,100229.29
2018-06-04T15:11:23.617Z,100232.89
2018-06-04T15:13:53.302Z,100223.16
2018-06-04T15:16:23.153Z,100222.61
2018-06-04T15:18:52.974Z,100217.32
2018-06-04T15:21:22.773Z,100212.50
2018-06-04T15:23:52.529Z,100215.99
2018-06-04T15:26:22.382Z,100216.39
2018-06-04T15:28:52.135Z,100211.60
2018-06-04T15:31:22.010Z,100208.02
2018-06-04T15:33:51.866Z,100216.58
2018-06-04T15:36:21.685Z,100207.09
2018-06-04T15:38:51.445Z,100210.89
2018-06-04T15:41:21.273Z,100209.13
2018-06-04T15:43:51.034Z,100204.70
2018-06-04T15:46:20.982Z,100198.88
2018-06-04T15:48:50.785Z,100202.09
2018-06-04T15:51:20.524Z,100193.94
2018-06-04T15:53:50.954Z,100193.39
2018-06-04T15:56:20.708Z,100191.70
2018-06-04T15:58:50.570Z,100180.81
2018-06-04T16:01:20.307Z,100177.88
2018-06-04T16:03:50.044Z,100183.11
2018-06-04T16:06:19.769Z,100179.28
2018-06-04T16:08:49.531Z,100168.88
2018-06-04T16:11:19.346Z,100172.13
2018-06-04T16:13:50.352Z,100174.16
2018-06-04T16:16:20.113Z,100171.14
2018-06-04T16:18:50.788Z,100171.17
2018-06-04T16:21:20.544Z,100177.17
2018-06-04T16:23:50.356Z,100176.17
2018-06-04T16:26:20.077Z,100174.75
2018-06-04T16:28:49.864Z,100173.92
2018-06-04T16:31:19.723Z,100165.73
2018-06-04T16:33:49.538Z,100174.05
2018-06-04T16:36:19.323Z,100175.71
2018-06-04T16:38:49.079Z,100175.25
2018-06-04T16:41:19.080Z,100175.63
2018-06-04T16:43:48.764Z,100164.20
2018-06-04T16:46:18.836Z,100165.66
2018-06-04T16:48:48.637Z,100170.41
2018-06-04T16:51:18.443Z,100176.00
2018-06-04T16:53:48.185Z,100166.60
2018-06-04T16:56:17.964Z,100167.03
2018-06-04T16:58:47.740Z,100158.22
2018-06-04T17:01:17.477Z,100158.50
2018-06-04T17:03:48.156Z,100158.28
2018-06-04T17:06:17.924Z,100159.14
2018-06-04T17:08:47.711Z,100156.52
2018-06-04T17:11:17.517Z,100154.16
2018-06-04T17:13:47.239Z,100158.30
2018-06-04T17:16:17.065Z,100162.81
2018-06-04T17:18:46.795Z,100164.83
2018-06-04T17:21:16.580Z,100160.03
2018-06-04T17:23:46.332Z,100169.53
2018-06-04T17:26:16.168Z,100160.45
2018-06-04T17:28:45.877Z,100166.83
2018-06-04T17:31:15.688Z,100159.73
2018-06-04T17:33:45.478Z,100158.15
2018-06-04T17:36:15.916Z,100156.63
2018-06-04T17:38:45.679Z,100157.48
2018-06-04T17:41:15.644Z,100155.27
2018-06-04T17:43:46.174Z,100149.67
2018-06-04T17:46:16.144Z,100146.25
2018-06-04T17:48:46.628Z,100148.91
2018-06-04T17:51:17.295Z,100143.17
2018-06-04T17:53:47.129Z,100136.16
2018-06-04T17:56:16.986Z,100144.77
2018-06-04T17:58:46.730Z,100141.52
2018-06-04T18:01:18.343Z,100144.34
2018-06-04T18:03:48.179Z,100141.19
2018-06-04T18:06:18.029Z,100141.83
2018-06-04T18:08:47.968Z,100141.34
2018-06-04T18:11:17.706Z,100140.16
2018-06-04T18:13:47.509Z,100143.83
2018-06-04T18:16:17.303Z,100139.47
2018-06-04T18:18:47.128Z,100139.66
2018-06-04T18:21:16.883Z,100145.73
2018-06-04T18:23:46.717Z,100140.78
2018-06-04T18:26:16.564Z,100140.00
2018-06-04T18:28:46.307Z,100140.23
2018-06-04T18:31:16.976Z,100141.02
2018-06-04T18:33:47.657Z,100144.06
2018-06-04T18:36:17.580Z,100145.91
2018-06-04T18:38:49.627Z,100150.91
2018-06-04T18:41:20.287Z,100151.27
2018-06-04T18:43:55.538Z,100151.02
2018-06-04T18:46:26.413Z,100149.19
2018-06-04T18:48:56.186Z,100148.80
2018-06-04T18:51:26.008Z,100154.17
2018-06-04T18:53:55.957Z,100152.78
2018-06-04T18:56:25.797Z,100154.17
2018-06-04T18:58:55.733Z,100151.61
2018-06-04T19:01:25.611Z,100159.59
2018-06-04T19:03:57.875Z,100158.08
2018-06-04T19:06:31.027Z,100156.23
2018-06-04T19:09:02.814Z,100159.44
2018-06-04T19:11:34.993Z,100163.02
2018-06-04T19:14:06.318Z,100165.60
2018-06-04T19:16:37.139Z,100171.44
2018-06-04T19:19:09.665Z,100173.54
2018-06-04T19:21:41.779Z,100173.38
2018-06-04T19:24:12.360Z,100177.91
2018-06-04T19:26:45.051Z,100176.83
2018-06-04T19:29:15.344Z,100180.63
2018-06-04T19:31:45.497Z,100190.77
2018-06-04T19:34:15.470Z,100188.44
2018-06-04T19:36:46.284Z,100188.63
2018-06-04T19:39:16.860Z,100192.20
2018-06-04T19:41:47.065Z,100196.48
2018-06-04T19:44:17.218Z,100198.26
2018-06-04T19:46:47.809Z,100203.89
2018-06-04T19:49:19.055Z,100199.39
2018-06-04T19:51:49.369Z,100202.18
2018-06-04T19:54:19.370Z,100205.11
2018-06-04T19:56:49.515Z,100210.15
2018-06-04T19:59:20.279Z,100216.71
2018-06-04T20:01:50.423Z,100215.64
2018-06-04T20:04:20.499Z,100218.23
2018-06-04T20:06:50.471Z,100222.94
2018-06-04T20:09:20.645Z,100216.72
2018-06-04T20:11:51.969Z,100227.03
2018-06-04T20:14:21.956Z,100229.20
2018-06-04T20:16:53.405Z,100230.81
2018-06-04T20:19:25.193Z,100232.18
2018-06-04T20:21:55.183Z,100239.11
2018-06-04T20:24:27.216Z,100235.95
2018-06-04T20:27:01.075Z,100242.28
2018-06-04T20:29:34.097Z,100246.58
2018-06-04T20:32:04.029Z,100242.38
2018-06-04T20:34:34.357Z,100243.27
2018-06-04T20:37:04.307Z,100245.91
2018-06-04T20:39:34.322Z,100247.84
2018-06-04T20:42:05.772Z,100246.00
2018-06-04T20:44:35.889Z,100244.98
2018-06-04T20:47:05.844Z,100244.22
2018-06-04T20:49:35.958Z,100248.05
2018-06-04T20:52:05.910Z,100245.77
2018-06-04T20:54:36.818Z,100248.12
2018-06-04T20:57:08.788Z,100246.09
2018-06-04T20:59:39.806Z,100242.55
2018-06-04T21:02:10.679Z,100246.87
2018-06-04T21:04:40.518Z,100242.16
2018-06-04T21:07:12.416Z,100245.79
2018-06-04T21:09:44.218Z,100241.38
2018-06-04T21:12:14.098Z,100247.73
2018-06-04T21:14:45.267Z,100253.75
2018-06-04T21:17:18.538Z,100254.52
2018-06-04T21:19:50.663Z,100258.80
2018-06-04T21:22:27.032Z,100253.27
2018-06-04T21:25:01.185Z,100255.81
2018-06-04T21:27:34.342Z,100257.45
2018-06-04T21:30:04.126Z,100254.28
2018-06-04T21:32:34.022Z,100256.25
2018-06-04T21:35:03.918Z,100255.45
2018-06-04T21:37:34.265Z,100265.48
2018-06-04T21:40:05.734Z,100264.73
2018-06-04T21:42:36.654Z,100265.28
2018-06-04T21:45:08.950Z,100262.77
2018-06-04T21:47:40.656Z,100267.95
2018-06-04T21:50:11.068Z,100263.11
2018-06-04T21:52:40.804Z,100260.38
2018-06-04T21:55:10.690Z,100251.97
2018-06-04T21:57:40.918Z,100261.77
2018-06-04T22:00:12.713Z,100263.88
2018-06-04T22:02:43.217Z,100259.19
2018-06-04T22:05:13.784Z,100261.52
2018-06-04T22:07:45.709Z,100275.27
2018-06-04T22:10:16.352Z,100271.78
2018-06-04T22:12:46.434Z,100272.38
2018-06-04T22:15:17.880Z,100273.78
2018-06-04T22:17:48.546Z,100274.36
2018-06-04T22:20:18.934Z,100274.49
2018-06-04T22:22:50.226Z,100275.28
2018-06-04T22:25:20.917Z,100277.91
2018-06-04T22:27:51.476Z,100276.17
2018-06-04T22:30:24.093Z,100279.61
2018-06-04T22:32:53.944Z,100273.80
2018-06-04T22:35:23.916Z,100279.27
2018-06-04T22:37:54.473Z,100278.81
2018-06-04T22:40:24.366Z,100279.68
2018-06-04T22:42:54.213Z,100283.90
2018-06-04T22:45:24.250Z,100281.61
2018-06-04T22:47:56.297Z,100285.27
2018-06-04T22:50:26.405Z,100284.56
2018-06-04T22:52:56.898Z,100289.98
2018-06-04T22:55:26.877Z,100288.79
2018-06-04T22:57:56.653Z,100290.91
2018-06-04T23:00:34.893Z,100288.54
2018-06-04T23:03:04.890Z,100293.42
2018-06-04T23:05:35.162Z,100296.77
2018-06-04T23:08:05.193Z,100293.59
2018-06-04T23:10:35.150Z,100301.32
2018-06-04T23:13:05.046Z,100300.79
2018-06-04T23:15:35.541Z,100298.16
2018-06-04T23:18:05.508Z,100308.84
2018-06-04T23:20:37.258Z,100302.03
2018-06-04T23:23:08.421Z,100302.11
2018-06-04T23:25:40.851Z,100309.91
2018-06-04T23:28:12.543Z,100308.10
2018-06-04T23:30:45.269Z,100308.58
2018-06-04T23:33:17.635Z,100313.13
2018-06-04T23:35:47.541Z,100308.58
2018-06-04T23:38:17.269Z,100308.77
2018-06-04T23:40:48.022Z,100309.67
2018-06-04T23:43:18.209Z,100312.47
2018-06-04T23:45:50.953Z,100302.34
2018-06-04T23:48:22.955Z,100297.33
2018-06-04T23:50:55.009Z,100290.59
2018-06-04T23:53:26.237Z,100295.39
2018-06-04T23:55:55.969Z,100302.34
2018-06-04T23:58:25.774Z,100310.11
